Time;durP1;ratioP1;P1;durP2;ratioP2;P2;SDS_P1;SDS_P2;PMS_P1;PMS_P2;Temp;Humidity;BMP_temperature;BMP_pressure;BME280_temperature;BME280_humidity;BME280_pressure;Samples;Min_cycle;Max_cycle;Signal;HPM_P1;HPM_P2
2021/01/02 00:00:35;;;;;;;;;;;-1.60;99.90;;;;;;5070517;28;19948;-76
2021/01/02 00:03:19;;;;;;;;;;;-1.70;99.90;;;;;;5070493;28;20046;-76
2021/01/02 00:06:08;;;;;;;;;;;-1.70;99.90;;;;;;5068592;28;20361;-76
2021/01/02 00:08:36;;;;;;;;;;;-1.60;99.90;;;;;;5060268;28;19919;-76
2021/01/02 00:11:07;;;;;;;;;;;-1.60;99.90;;;;;;5067290;28;20380;-76
2021/01/02 00:13:38;;;;;;;;;;;-1.60;99.90;;;;;;5068944;28;19908;-76
2021/01/02 00:16:21;;;;;;;;;;;-1.60;99.90;;;;;;5067243;28;20151;-76
2021/01/02 00:18:58;;;;;;;;;;;-1.60;99.90;;;;;;5062111;28;19908;-77
2021/01/02 00:21:27;;;;;;;;;;;-1.60;99.90;;;;;;5068152;28;20002;-76
2021/01/02 00:24:08;;;;;;;;;;;-1.50;99.90;;;;;;5066526;28;19909;-77
2021/01/02 00:26:34;;;;;;;;;;;-1.50;99.90;;;;;;5066037;28;19912;-76
2021/01/02 00:29:01;;;;;;;;;;;-1.40;99.90;;;;;;5069670;28;20450;-76
2021/01/02 00:31:45;;;;;;;;;;;-1.30;99.90;;;;;;5070872;28;19969;-77
2021/01/02 00:34:14;;;;;;;;;;;-1.30;99.90;;;;;;5069478;28;19913;-77
2021/01/02 00:36:43;;;;;;;;;;;-1.20;99.90;;;;;;5066698;28;20389;-76
2021/01/02 00:39:14;;;;;;;;;;;-1.10;99.90;;;;;;5073275;28;20014;-77
2021/01/02 00:41:39;;;;;;;;;;;-1.10;99.90;;;;;;5060670;28;20243;-77
2021/01/02 00:44:05;;;;;;;;;;;-1.10;99.90;;;;;;5070416;28;20049;-76
2021/01/02 00:46:32;;;;;;;;;;;-1.00;99.90;;;;;;5070314;28;19912;-76
2021/01/02 00:48:58;;;;;;;;;;;-0.90;99.90;;;;;;5070577;28;19909;-77
2021/01/02 00:51:24;;;;;;;;;;;-0.90;99.90;;;;;;5070534;28;20006;-77
2021/01/02 00:53:56;;;;;;;;;;;-0.90;99.90;;;;;;5070748;28;20311;-77
2021/01/02 00:56:29;;;;;;;;;;;-0.80;99.90;;;;;;5070276;28;19929;-77
2021/01/02 00:58:57;;;;;;;;;;;-0.90;99.90;;;;;;5064495;28;19916;-77
2021/01/02 01:01:35;;;;;;;;;;;-0.80;99.90;;;;;;5070699;28;19908;-76
2021/01/02 01:04:03;;;;;;;;;;;-0.70;99.90;;;;;;5070625;28;19919;-75
2021/01/02 01:06:29;;;;;;;;;;;-0.70;99.90;;;;;;5070402;28;20423;-74
2021/01/02 01:09:02;;;;;;;;;;;-0.70;99.90;;;;;;5070637;28;20276;-74
2021/01/02 01:11:35;;;;;;;;;;;-0.60;99.90;;;;;;5070817;28;20350;-75
2021/01/02 01:14:02;;;;;;;;;;;-0.60;99.90;;;;;;5073955;28;19912;-75
2021/01/02 01:16:28;;;;;;;;;;;-0.60;99.90;;;;;;5073952;28;19962;-75
2021/01/02 01:19:04;;;;;;;;;;;-0.60;99.90;;;;;;5074170;28;19909;-75
2021/01/02 01:21:33;;;;;;;;;;;-0.50;99.90;;;;;;5074266;28;19960;-75
2021/01/02 01:23:59;;;;;;;;;;;-0.50;99.90;;;;;;5074214;28;19977;-74
2021/01/02 01:26:24;;;;;;;;;;;-0.50;99.90;;;;;;5073735;28;20316;-75
2021/01/02 01:28:55;;;;;;;;;;;-0.50;99.90;;;;;;5072716;28;19912;-75
2021/01/02 01:31:20;;;;;;;;;;;-0.50;99.90;;;;;;5073904;28;20369;-75
2021/01/02 01:33:47;;;;;;;;;;;-0.40;99.90;;;;;;5073897;28;19915;-75
2021/01/02 01:36:14;;;;;;;;;;;-0.40;99.90;;;;;;5073522;28;19966;-75
2021/01/02 01:38:42;;;;;;;;;;;-0.40;99.90;;;;;;5073787;28;19957;-75
2021/01/02 01:41:12;;;;;;;;;;;-0.30;99.90;;;;;;5073877;28;19909;-75
2021/01/02 01:43:50;;;;;;;;;;;-0.30;99.90;;;;;;5071714;28;20285;-75
2021/01/02 01:46:16;;;;;;;;;;;-0.30;99.90;;;;;;5071984;28;19908;-75
2021/01/02 01:49:05;;;;;;;;;;;-0.20;99.90;;;;;;5073916;28;19927;-75
2021/01/02 01:51:38;;;;;;;;;;;-0.20;99.90;;;;;;5045163;28;19912;-75
2021/01/02 01:54:13;;;;;;;;;;;-0.20;99.90;;;;;;5073580;28;20027;-75
2021/01/02 01:56:43;;;;;;;;;;;-0.10;99.90;;;;;;5071792;28;19983;-75
2021/01/02 01:59:14;;;;;;;;;;;-0.10;99.90;;;;;;5072075;28;20146;-75
2021/01/02 02:01:43;;;;;;;;;;;-0.10;99.90;;;;;;5073540;28;19913;-75
2021/01/02 02:04:09;;;;;;;;;;;-0.10;99.90;;;;;;5073242;28;19915;-75
2021/01/02 02:06:36;;;;;;;;;;;0.00;99.90;;;;;;5072902;28;20003;-75
2021/01/02 02:09:03;;;;;;;;;;;0.00;99.90;;;;;;5073306;28;19915;-75
2021/01/02 02:11:34;;;;;;;;;;;0.00;99.90;;;;;;5072982;28;19912;-75
2021/01/02 02:14:08;;;;;;;;;;;0.00;99.90;;;;;;5072904;28;19908;-75
2021/01/02 02:16:41;;;;;;;;;;;0.00;99.90;;;;;;5072491;28;19916;-75
2021/01/02 02:19:12;;;;;;;;;;;0.00;99.90;;;;;;5072901;28;20381;-75
2021/01/02 02:21:41;;;;;;;;;;;0.00;99.90;;;;;;5072945;28;19916;-75
2021/01/02 02:24:11;;;;;;;;;;;0.00;99.90;;;;;;5072046;28;20403;-75
2021/01/02 02:26:37;;;;;;;;;;;0.00;99.90;;;;;;5072470;28;19952;-75
2021/01/02 02:29:03;;;;;;;;;;;0.10;99.90;;;;;;5072822;28;19961;-75
2021/01/02 02:31:29;;;;;;;;;;;0.10;99.90;;;;;;5072557;28;19921;-75
2021/01/02 02:34:02;;;;;;;;;;;0.10;99.90;;;;;;5071553;28;20242;-75
2021/01/02 02:36:29;;;;;;;;;;;0.20;99.90;;;;;;5066731;28;20362;-75
2021/01/02 02:38:57;;;;;;;;;;;0.20;99.90;;;;;;5072577;28;19912;-75
2021/01/02 02:41:25;;;;;;;;;;;0.30;99.90;;;;;;5072900;28;20387;-75
2021/01/02 02:43:52;;;;;;;;;;;0.30;99.90;;;;;;5072110;28;19913;-75
2021/01/02 02:46:19;;;;;;;;;;;0.30;99.90;;;;;;5072110;28;19908;-75
2021/01/02 02:48:47;;;;;;;;;;;0.30;99.90;;;;;;5072470;28;19915;-75
2021/01/02 02:51:14;;;;;;;;;;;0.30;99.90;;;;;;5072385;28;20258;-75
2021/01/02 02:53:39;;;;;;;;;;;0.30;99.90;;;;;;5071098;28;19910;-75
2021/01/02 02:56:05;;;;;;;;;;;0.30;99.90;;;;;;5071829;28;19912;-75
2021/01/02 02:58:30;;;;;;;;;;;0.30;99.90;;;;;;5071935;28;19912;-75
2021/01/02 03:00:56;;;;;;;;;;;0.40;99.90;;;;;;5072257;28;19954;-75
2021/01/02 03:03:22;;;;;;;;;;;0.40;99.90;;;;;;5061573;28;20007;-75
2021/01/02 03:05:48;;;;;;;;;;;0.40;99.90;;;;;;5070223;28;19923;-75
2021/01/02 03:08:14;;;;;;;;;;;0.40;99.90;;;;;;5072073;28;19915;-75
2021/01/02 03:10:42;;;;;;;;;;;0.40;99.90;;;;;;5072018;28;19908;-75
2021/01/02 03:13:07;;;;;;;;;;;0.40;99.90;;;;;;5071903;28;20007;-75
2021/01/02 03:15:37;;;;;;;;;;;0.40;99.90;;;;;;5071747;28;20003;-75
2021/01/02 03:18:03;;;;;;;;;;;0.40;99.90;;;;;;5072089;28;20246;-75
2021/01/02 03:20:30;;;;;;;;;;;0.40;99.90;;;;;;5070616;28;19934;-75
2021/01/02 03:22:55;;;;;;;;;;;0.40;99.90;;;;;;5071760;28;19908;-75
2021/01/02 03:25:21;;;;;;;;;;;0.50;99.90;;;;;;5071548;28;20258;-75
2021/01/02 03:27:51;;;;;;;;;;;0.50;99.90;;;;;;5071168;28;19915;-75
2021/01/02 03:30:16;;;;;;;;;;;0.50;99.90;;;;;;5071581;28;19959;-75
2021/01/02 03:32:42;;;;;;;;;;;0.50;99.90;;;;;;5069966;28;20329;-75
2021/01/02 03:35:09;;;;;;;;;;;0.50;99.90;;;;;;5070869;28;19920;-75
2021/01/02 03:37:35;;;;;;;;;;;0.40;99.90;;;;;;5069730;28;19908;-75
2021/01/02 03:40:01;;;;;;;;;;;0.40;99.90;;;;;;5071347;28;19913;-75
2021/01/02 03:42:27;;;;;;;;;;;0.30;99.90;;;;;;5071319;28;19912;-75
2021/01/02 03:44:52;;;;;;;;;;;0.30;99.90;;;;;;5070089;28;20206;-75
2021/01/02 03:47:18;;;;;;;;;;;0.40;99.90;;;;;;5069632;28;20380;-75
2021/01/02 03:49:43;;;;;;;;;;;0.30;99.90;;;;;;5071264;28;19908;-75
2021/01/02 03:52:09;;;;;;;;;;;0.30;99.90;;;;;;5071365;28;20328;-75
2021/01/02 03:54:35;;;;;;;;;;;0.40;99.90;;;;;;5072935;28;19919;-75
2021/01/02 03:57:00;;;;;;;;;;;0.40;99.90;;;;;;5073907;28;19920;-75
2021/01/02 03:59:26;;;;;;;;;;;0.40;99.90;;;;;;5071030;28;19920;-75
2021/01/02 04:01:55;;;;;;;;;;;0.40;99.90;;;;;;5071271;28;19908;-75
2021/01/02 04:04:21;;;;;;;;;;;0.40;99.90;;;;;;5071081;28;19917;-76
2021/01/02 04:06:46;;;;;;;;;;;0.40;99.90;;;;;;5070692;28;19961;-76
2021/01/02 04:09:12;;;;;;;;;;;0.40;99.90;;;;;;5069470;28;19920;-76
2021/01/02 04:11:41;;;;;;;;;;;0.40;99.90;;;;;;5070865;28;19912;-76
2021/01/02 04:14:07;;;;;;;;;;;0.40;99.90;;;;;;5071033;28;19912;-76
2021/01/02 04:16:33;;;;;;;;;;;0.50;99.90;;;;;;5070608;28;19913;-76
2021/01/02 04:18:58;;;;;;;;;;;0.50;99.90;;;;;;5069613;28;19909;-76
2021/01/02 04:21:23;;;;;;;;;;;0.50;99.90;;;;;;5070933;28;19908;-76
2021/01/02 04:23:49;;;;;;;;;;;0.50;99.90;;;;;;5066975;28;20272;-76
2021/01/02 04:26:21;;;;;;;;;;;0.50;99.90;;;;;;5068671;28;20595;-76
2021/01/02 04:28:48;;;;;;;;;;;0.50;99.90;;;;;;5069478;28;20002;-76
2021/01/02 04:31:13;;;;;;;;;;;0.50;99.90;;;;;;5070902;28;19917;-76
2021/01/02 04:33:39;;;;;;;;;;;0.50;99.90;;;;;;5070870;28;20266;-76
2021/01/02 04:36:04;;;;;;;;;;;0.50;99.90;;;;;;5070458;28;20392;-76
2021/01/02 04:38:30;;;;;;;;;;;0.50;99.90;;;;;;5070512;28;20612;-75
2021/01/02 04:40:56;;;;;;;;;;;0.50;99.90;;;;;;5070838;28;19909;-76
2021/01/02 04:43:22;;;;;;;;;;;0.50;99.90;;;;;;5070912;28;19912;-76
2021/01/02 04:45:48;;;;;;;;;;;0.50;99.90;;;;;;5070401;28;19909;-76
2021/01/02 04:48:13;;;;;;;;;;;0.50;99.90;;;;;;5067298;28;20288;-76
2021/01/02 04:50:39;;;;;;;;;;;0.60;99.90;;;;;;5073359;28;19908;-76
2021/01/02 04:53:05;;;;;;;;;;;0.60;99.90;;;;;;5074435;28;20335;-76
2021/01/02 04:55:31;;;;;;;;;;;0.60;99.90;;;;;;5068976;28;19916;-76
2021/01/02 04:57:57;;;;;;;;;;;0.70;99.90;;;;;;5074031;28;20042;-76
2021/01/02 05:00:24;;;;;;;;;;;0.70;99.90;;;;;;5074637;28;20373;-76
2021/01/02 05:02:51;;;;;;;;;;;0.70;99.90;;;;;;5074609;28;19909;-76
2021/01/02 05:05:17;;;;;;;;;;;0.70;99.90;;;;;;5074517;28;20352;-76
2021/01/02 05:07:43;;;;;;;;;;;0.70;99.90;;;;;;5073710;28;19978;-76
2021/01/02 05:10:09;;;;;;;;;;;0.70;99.90;;;;;;5074289;28;20377;-76
2021/01/02 05:12:35;;;;;;;;;;;0.70;99.90;;;;;;5074250;28;19913;-76
2021/01/02 05:15:02;;;;;;;;;;;0.70;99.90;;;;;;5074187;28;19969;-76
2021/01/02 05:17:28;;;;;;;;;;;0.70;99.90;;;;;;5074058;28;19962;-76
2021/01/02 05:20:13;;;;;;;;;;;0.70;99.90;;;;;;5074089;28;19954;-76
2021/01/02 05:22:40;;;;;;;;;;;0.70;99.90;;;;;;5067553;28;19940;-76
2021/01/02 05:25:13;;;;;;;;;;;0.70;99.90;;;;;;5074153;28;20186;-76
2021/01/02 05:27:39;;;;;;;;;;;0.70;99.90;;;;;;5072135;28;20334;-76
2021/01/02 05:30:17;;;;;;;;;;;0.70;99.90;;;;;;5073904;28;19940;-76
2021/01/02 05:32:57;;;;;;;;;;;0.60;99.90;;;;;;5073800;28;20000;-76
2021/01/02 05:35:23;;;;;;;;;;;0.60;99.90;;;;;;5073783;28;20004;-76
2021/01/02 05:37:49;;;;;;;;;;;0.70;99.90;;;;;;5073238;28;19951;-76
2021/01/02 05:40:33;;;;;;;;;;;0.70;99.90;;;;;;5073761;28;19995;-76
2021/01/02 05:42:59;;;;;;;;;;;0.70;99.90;;;;;;5073644;28;19908;-76
2021/01/02 05:45:26;;;;;;;;;;;0.70;99.90;;;;;;5074160;28;19908;-76
2021/01/02 05:47:52;;;;;;;;;;;0.70;99.90;;;;;;5073200;28;20369;-76
2021/01/02 05:50:19;;;;;;;;;;;0.70;99.90;;;;;;5073686;28;19916;-76
2021/01/02 05:52:48;;;;;;;;;;;0.60;99.90;;;;;;5073456;28;20389;-76
2021/01/02 05:55:27;;;;;;;;;;;0.60;99.90;;;;;;5063860;28;19965;-76
2021/01/02 05:57:52;;;;;;;;;;;0.60;99.90;;;;;;5064918;28;20358;-76
2021/01/02 06:00:19;;;;;;;;;;;0.60;99.90;;;;;;5073614;28;19916;-76
2021/01/02 06:02:45;;;;;;;;;;;0.60;99.90;;;;;;5073346;28;20289;-76
2021/01/02 06:05:10;;;;;;;;;;;0.60;99.90;;;;;;5073398;28;19917;-76
2021/01/02 06:07:40;;;;;;;;;;;0.60;99.90;;;;;;5071484;28;19908;-76
2021/01/02 06:10:09;;;;;;;;;;;0.60;99.90;;;;;;5073174;28;19912;-76
2021/01/02 06:12:35;;;;;;;;;;;0.60;99.90;;;;;;5071836;28;20368;-77
2021/01/02 06:15:03;;;;;;;;;;;0.60;99.90;;;;;;5073111;28;19916;-74
2021/01/02 06:17:33;;;;;;;;;;;0.60;99.90;;;;;;5072797;28;19908;-76
2021/01/02 06:20:00;;;;;;;;;;;0.60;99.90;;;;;;5071530;28;20363;-74
2021/01/02 06:22:29;;;;;;;;;;;0.60;99.90;;;;;;5071600;28;19947;-75
2021/01/02 06:24:55;;;;;;;;;;;0.60;99.90;;;;;;5066345;28;19919;-75
2021/01/02 06:27:20;;;;;;;;;;;0.60;99.90;;;;;;5075061;28;19913;-74
2021/01/02 06:29:53;;;;;;;;;;;0.60;99.90;;;;;;5072691;28;19915;-75
2021/01/02 06:32:21;;;;;;;;;;;0.60;99.90;;;;;;5066653;28;19973;-75
2021/01/02 06:35:05;;;;;;;;;;;0.60;99.90;;;;;;5066637;28;20262;-77
2021/01/02 06:37:49;;;;;;;;;;;0.60;99.90;;;;;;5072369;28;19924;-75
2021/01/02 06:40:25;;;;;;;;;;;0.60;99.90;;;;;;5073041;28;19908;-75
2021/01/02 06:42:58;;;;;;;;;;;0.60;99.90;;;;;;5073093;28;20417;-75
2021/01/02 06:45:46;;;;;;;;;;;0.60;99.90;;;;;;5066290;28;19909;-77
2021/01/02 06:48:24;;;;;;;;;;;0.60;99.90;;;;;;5060961;28;19962;-75
2021/01/02 06:50:51;;;;;;;;;;;0.60;99.90;;;;;;5071405;28;19987;-74
2021/01/02 06:53:20;;;;;;;;;;;0.60;99.90;;;;;;5072784;28;19909;-75
2021/01/02 06:55:45;;;;;;;;;;;0.60;99.90;;;;;;5069630;28;19912;-74
2021/01/02 06:58:15;;;;;;;;;;;0.60;99.90;;;;;;5077690;28;19919;-75
2021/01/02 07:00:40;;;;;;;;;;;0.50;99.90;;;;;;5072922;28;19912;-75
2021/01/02 07:03:08;;;;;;;;;;;0.50;99.90;;;;;;5072772;28;19909;-75
2021/01/02 07:05:41;;;;;;;;;;;0.50;99.90;;;;;;5070826;28;19909;-76
2021/01/02 07:08:26;;;;;;;;;;;0.60;99.90;;;;;;5072351;28;19987;-74
2021/01/02 07:11:12;;;;;;;;;;;0.50;99.90;;;;;;5071435;28;20017;-76
2021/01/02 07:13:37;;;;;;;;;;;0.50;99.90;;;;;;5072210;28;19908;-74
2021/01/02 07:16:23;;;;;;;;;;;0.50;99.90;;;;;;5071767;28;20057;-75
2021/01/02 07:18:48;;;;;;;;;;;0.50;99.90;;;;;;5071815;28;19908;-75
2021/01/02 07:21:33;;;;;;;;;;;0.60;99.90;;;;;;5072031;28;20281;-75
2021/01/02 07:24:17;;;;;;;;;;;0.60;99.90;;;;;;5071999;28;19916;-76
2021/01/02 07:26:42;;;;;;;;;;;0.60;99.90;;;;;;5065344;28;19912;-76
2021/01/02 07:29:15;;;;;;;;;;;0.60;99.90;;;;;;5071631;28;19931;-75
2021/01/02 07:31:41;;;;;;;;;;;0.70;99.90;;;;;;5067345;28;19924;-74
2021/01/02 07:34:15;;;;;;;;;;;0.70;99.90;;;;;;5071863;28;20250;-78
2021/01/02 07:36:41;;;;;;;;;;;0.70;99.90;;;;;;5070018;28;19924;-76
2021/01/02 07:39:06;;;;;;;;;;;0.60;99.90;;;;;;5070398;28;19908;-76
2021/01/02 07:41:34;;;;;;;;;;;0.60;99.90;;;;;;5069429;28;19946;-75
2021/01/02 07:43:59;;;;;;;;;;;0.60;99.90;;;;;;5067096;28;19966;-75
2021/01/02 07:46:25;;;;;;;;;;;0.70;99.90;;;;;;5071157;28;19948;-75
2021/01/02 07:48:54;;;;;;;;;;;0.70;99.90;;;;;;5070096;28;19912;-77
2021/01/02 07:51:20;;;;;;;;;;;0.70;99.90;;;;;;5070355;28;19912;-75
2021/01/02 07:53:54;;;;;;;;;;;0.70;99.90;;;;;;5071569;28;19908;-75
2021/01/02 07:56:41;;;;;;;;;;;0.70;99.90;;;;;;5069782;28;20327;-75
2021/01/02 07:59:24;;;;;;;;;;;0.70;99.90;;;;;;5071572;28;19932;-75
2021/01/02 08:01:51;;;;;;;;;;;0.60;99.90;;;;;;5070185;28;19935;-75
2021/01/02 08:04:17;;;;;;;;;;;0.60;99.90;;;;;;5071433;28;19916;-75
2021/01/02 08:06:50;;;;;;;;;;;0.60;99.90;;;;;;5070968;28;19908;-75
2021/01/02 08:09:16;;;;;;;;;;;0.60;99.90;;;;;;5071270;28;20324;-75
2021/01/02 08:11:52;;;;;;;;;;;0.60;99.90;;;;;;5069498;28;19920;-76
2021/01/02 08:14:18;;;;;;;;;;;0.60;99.90;;;;;;5071500;28;19954;-75
2021/01/02 08:16:54;;;;;;;;;;;0.60;99.90;;;;;;5074120;28;19995;-75
2021/01/02 08:19:19;;;;;;;;;;;0.60;99.90;;;;;;5071061;28;19908;-75
2021/01/02 08:21:45;;;;;;;;;;;0.60;99.90;;;;;;5071235;28;19954;-75
2021/01/02 08:24:14;;;;;;;;;;;0.60;99.90;;;;;;5071276;28;19999;-74
2021/01/02 08:26:39;;;;;;;;;;;0.60;99.90;;;;;;5070829;28;20437;-75
2021/01/02 08:29:06;;;;;;;;;;;0.60;99.90;;;;;;5070990;28;19991;-74
2021/01/02 08:31:32;;;;;;;;;;;0.60;99.90;;;;;;5071084;28;20328;-75
2021/01/02 08:33:59;;;;;;;;;;;0.60;99.90;;;;;;5070812;28;19912;-78
2021/01/02 08:36:25;;;;;;;;;;;0.60;99.90;;;;;;5070896;28;19916;-75
2021/01/02 08:38:57;;;;;;;;;;;0.70;99.90;;;;;;5071004;28;20295;-75
2021/01/02 08:41:22;;;;;;;;;;;0.70;99.90;;;;;;5070177;28;20245;-74
2021/01/02 08:43:51;;;;;;;;;;;0.70;99.90;;;;;;5070756;28;19916;-77
2021/01/02 08:46:21;;;;;;;;;;;0.70;99.90;;;;;;5070418;28;19908;-77
2021/01/02 08:48:46;;;;;;;;;;;0.60;99.90;;;;;;5070840;28;20270;-75
2021/01/02 08:51:21;;;;;;;;;;;0.70;99.90;;;;;;5071011;28;19909;-76
2021/01/02 08:53:47;;;;;;;;;;;0.70;99.90;;;;;;5066511;28;20383;-75
2021/01/02 08:56:22;;;;;;;;;;;0.60;99.90;;;;;;5071843;28;19966;-77
2021/01/02 08:58:47;;;;;;;;;;;0.60;99.90;;;;;;5069783;28;19962;-75
2021/01/02 09:01:13;;;;;;;;;;;0.70;99.90;;;;;;5069451;28;20361;-75
2021/01/02 09:03:38;;;;;;;;;;;0.70;99.90;;;;;;5070796;28;19970;-75
2021/01/02 09:06:16;;;;;;;;;;;0.70;99.90;;;;;;5069087;28;19916;-75
2021/01/02 09:08:41;;;;;;;;;;;0.70;99.90;;;;;;5069351;28;19948;-75
2021/01/02 09:11:07;;;;;;;;;;;0.70;99.90;;;;;;5070590;28;20328;-77
2021/01/02 09:13:32;;;;;;;;;;;0.70;99.90;;;;;;5070528;28;19916;-75
2021/01/02 09:15:59;;;;;;;;;;;0.70;99.90;;;;;;5070390;28;20187;-75
2021/01/02 09:18:27;;;;;;;;;;;0.80;99.90;;;;;;5069206;28;19994;-75
2021/01/02 09:20:53;;;;;;;;;;;0.80;99.90;;;;;;5070871;28;20369;-77
2021/01/02 09:23:28;;;;;;;;;;;0.90;99.90;;;;;;5070657;28;19912;-75
2021/01/02 09:25:53;;;;;;;;;;;0.90;99.90;;;;;;5069507;28;20365;-75
2021/01/02 09:28:19;;;;;;;;;;;0.90;99.90;;;;;;5069088;28;20027;-77
2021/01/02 09:30:45;;;;;;;;;;;0.90;99.90;;;;;;5070434;28;20319;-75
2021/01/02 09:33:11;;;;;;;;;;;0.90;99.90;;;;;;5071538;28;19965;-75
2021/01/02 09:35:37;;;;;;;;;;;0.90;99.90;;;;;;5072420;28;19935;-74
2021/01/02 09:38:03;;;;;;;;;;;0.90;99.90;;;;;;5071632;28;20206;-75
2021/01/02 09:40:29;;;;;;;;;;;0.90;99.90;;;;;;5073592;28;19995;-75
2021/01/02 09:42:55;;;;;;;;;;;0.90;99.90;;;;;;5073881;28;20011;-75
2021/01/02 09:45:20;;;;;;;;;;;1.00;99.90;;;;;;5073897;28;19983;-75
2021/01/02 09:47:46;;;;;;;;;;;1.00;99.90;;;;;;5073465;28;19915;-75
2021/01/02 09:50:11;;;;;;;;;;;1.00;99.90;;;;;;5073775;28;19948;-75
2021/01/02 09:52:37;;;;;;;;;;;1.00;99.90;;;;;;5073832;28;19915;-75
2021/01/02 09:55:03;;;;;;;;;;;1.10;99.90;;;;;;5073540;28;19918;-75
2021/01/02 09:57:28;;;;;;;;;;;1.10;99.90;;;;;;5073591;28;19935;-75
2021/01/02 09:59:54;;;;;;;;;;;1.20;99.90;;;;;;5072246;28;20420;-78
2021/01/02 10:02:19;;;;;;;;;;;1.20;99.90;;;;;;5073437;28;19908;-75
2021/01/02 10:04:46;;;;;;;;;;;1.20;99.90;;;;;;5073564;28;20353;-75
2021/01/02 10:07:12;;;;;;;;;;;1.20;99.90;;;;;;5071967;28;19912;-75
2021/01/02 10:09:41;;;;;;;;;;;1.30;99.90;;;;;;5072912;28;20436;-75
2021/01/02 10:12:07;;;;;;;;;;;1.20;99.90;;;;;;5073888;28;19908;-75
2021/01/02 10:14:32;;;;;;;;;;;1.20;99.90;;;;;;5072004;28;19995;-75
2021/01/02 10:16:58;;;;;;;;;;;1.20;99.90;;;;;;5071435;28;20003;-76
2021/01/02 10:19:23;;;;;;;;;;;1.30;99.90;;;;;;5073141;28;19974;-75
2021/01/02 10:21:49;;;;;;;;;;;1.30;99.90;;;;;;5071852;28;19970;-75
2021/01/02 10:24:14;;;;;;;;;;;1.40;99.90;;;;;;5072991;28;19909;-77
2021/01/02 10:26:40;;;;;;;;;;;1.40;99.90;;;;;;5072844;28;19990;-75
2021/01/02 10:29:05;;;;;;;;;;;1.40;99.90;;;;;;5071701;28;19914;-74
2021/01/02 10:31:31;;;;;;;;;;;1.40;99.90;;;;;;5071714;28;20312;-75
2021/01/02 10:33:56;;;;;;;;;;;1.40;99.90;;;;;;5066366;28;19909;-78
2021/01/02 10:36:22;;;;;;;;;;;1.40;99.90;;;;;;5071168;28;19919;-75
2021/01/02 10:38:47;;;;;;;;;;;1.50;99.90;;;;;;5072532;28;19909;-75
2021/01/02 10:41:14;;;;;;;;;;;1.50;99.90;;;;;;5072487;28;19932;-75
2021/01/02 10:43:39;;;;;;;;;;;1.50;99.90;;;;;;5072528;28;19958;-75
2021/01/02 10:46:09;;;;;;;;;;;1.50;99.90;;;;;;5071370;28;19940;-78
2021/01/02 10:48:35;;;;;;;;;;;1.50;99.90;;;;;;5072641;28;19931;-74
2021/01/02 10:51:01;;;;;;;;;;;1.50;99.90;;;;;;5072644;28;20476;-75
2021/01/02 10:53:26;;;;;;;;;;;1.50;99.90;;;;;;5072662;28;19909;-75
2021/01/02 10:55:52;;;;;;;;;;;1.60;99.90;;;;;;5071976;28;20315;-75
2021/01/02 10:58:17;;;;;;;;;;;1.60;99.90;;;;;;5072328;28;19964;-77
2021/01/02 11:00:43;;;;;;;;;;;1.60;99.90;;;;;;5072241;28;19930;-75
2021/01/02 11:03:08;;;;;;;;;;;1.60;99.90;;;;;;5072342;28;19931;-75
2021/01/02 11:05:33;;;;;;;;;;;1.70;99.90;;;;;;5070758;28;19908;-77
2021/01/02 11:07:59;;;;;;;;;;;1.80;99.90;;;;;;5070541;28;20349;-75
2021/01/02 11:10:24;;;;;;;;;;;1.90;99.90;;;;;;5073186;28;19912;-75
2021/01/02 11:12:50;;;;;;;;;;;2.00;99.90;;;;;;5070094;28;19962;-75
2021/01/02 11:15:15;;;;;;;;;;;2.00;99.90;;;;;;5065990;28;19920;-79
2021/01/02 11:17:41;;;;;;;;;;;2.00;99.90;;;;;;5054842;28;19999;-74
2021/01/02 11:20:07;;;;;;;;;;;2.00;99.90;;;;;;5061190;28;19908;-75
2021/01/02 11:22:32;;;;;;;;;;;2.00;99.90;;;;;;5072285;28;19948;-75
2021/01/02 11:24:58;;;;;;;;;;;2.10;99.90;;;;;;5071908;28;19965;-75
2021/01/02 11:27:23;;;;;;;;;;;2.00;99.90;;;;;;5060894;28;20281;-74
2021/01/02 11:29:49;;;;;;;;;;;2.00;99.90;;;;;;5059639;28;19999;-74
2021/01/02 11:32:15;;;;;;;;;;;2.00;99.90;;;;;;5059707;28;19927;-76
2021/01/02 11:34:40;;;;;;;;;;;2.00;99.90;;;;;;5064107;28;19913;-76
2021/01/02 11:37:07;;;;;;;;;;;2.00;99.90;;;;;;5061189;28;19909;-77
2021/01/02 11:39:33;;;;;;;;;;;2.00;99.90;;;;;;5061414;28;20030;-75
2021/01/02 11:42:03;;;;;;;;;;;2.00;99.90;;;;;;5059647;28;20453;-74
2021/01/02 11:44:29;;;;;;;;;;;1.90;99.90;;;;;;5058267;28;19938;-75
2021/01/02 11:46:56;;;;;;;;;;;1.90;99.90;;;;;;5056296;28;20572;-77
2021/01/02 11:49:22;;;;;;;;;;;1.90;99.90;;;;;;5053953;28;19919;-75
2021/01/02 11:51:52;;;;;;;;;;;1.90;99.90;;;;;;5051960;28;19913;-75
2021/01/02 11:54:18;;;;;;;;;;;2.00;99.90;;;;;;5061053;28;20030;-75
2021/01/02 11:56:44;;;;;;;;;;;2.00;99.90;;;;;;5051935;28;19980;-74
2021/01/02 11:59:09;;;;;;;;;;;2.10;99.90;;;;;;5059479;28;19908;-75
2021/01/02 12:01:43;;;;;;;;;;;2.20;99.90;;;;;;5071447;28;19908;-76
2021/01/02 12:04:09;;;;;;;;;;;2.20;99.90;;;;;;5057591;28;19915;-75
2021/01/02 12:06:35;;;;;;;;;;;2.20;99.90;;;;;;5070491;28;20309;-75
2021/01/02 12:09:01;;;;;;;;;;;2.10;99.90;;;;;;5071169;28;19912;-75
2021/01/02 12:11:27;;;;;;;;;;;2.10;99.90;;;;;;5068767;28;19909;-74
2021/01/02 12:13:53;;;;;;;;;;;2.00;99.90;;;;;;5070900;28;19981;-74
2021/01/02 12:16:18;;;;;;;;;;;2.00;99.90;;;;;;5069387;28;20173;-74
2021/01/02 12:18:44;;;;;;;;;;;2.00;99.90;;;;;;5071043;28;19908;-74
2021/01/02 12:21:15;;;;;;;;;;;2.00;99.90;;;;;;5067208;28;19912;-75
2021/01/02 12:23:42;;;;;;;;;;;2.00;99.90;;;;;;5076739;28;19932;-77
2021/01/02 12:26:07;;;;;;;;;;;1.90;99.90;;;;;;5065469;28;19955;-74
2021/01/02 12:28:33;;;;;;;;;;;1.90;99.90;;;;;;5069139;28;20387;-78
2021/01/02 12:30:59;;;;;;;;;;;1.90;99.90;;;;;;5070779;28;19917;-74
2021/01/02 12:33:24;;;;;;;;;;;2.00;99.90;;;;;;5070918;28;19986;-77
2021/01/02 12:35:50;;;;;;;;;;;1.90;99.90;;;;;;5071579;28;19960;-77
2021/01/02 12:38:15;;;;;;;;;;;2.00;99.90;;;;;;5070212;28;19908;-76
2021/01/02 12:40:42;;;;;;;;;;;2.00;99.90;;;;;;5070233;28;20368;-77
2021/01/02 12:43:07;;;;;;;;;;;1.90;99.90;;;;;;5070009;28;20377;-77
2021/01/02 12:45:33;;;;;;;;;;;1.90;99.90;;;;;;5054511;28;20120;-77
2021/01/02 12:47:58;;;;;;;;;;;1.80;99.90;;;;;;5056918;28;19999;-77
2021/01/02 12:50:24;;;;;;;;;;;1.70;99.90;;;;;;5052751;28;19920;-75
2021/01/02 12:52:49;;;;;;;;;;;1.70;99.90;;;;;;5055628;28;20441;-77
2021/01/02 12:55:14;;;;;;;;;;;1.70;99.90;;;;;;5056413;28;19916;-77
2021/01/02 12:57:40;;;;;;;;;;;1.70;99.90;;;;;;5056667;28;19995;-76
2021/01/02 13:00:07;;;;;;;;;;;1.60;99.90;;;;;;5058107;28;20312;-77
2021/01/02 13:02:32;;;;;;;;;;;1.60;99.90;;;;;;5058244;28;19951;-76
2021/01/02 13:04:58;;;;;;;;;;;1.50;99.90;;;;;;5065997;28;20348;-77
2021/01/02 13:07:23;;;;;;;;;;;1.50;99.90;;;;;;5069661;28;19917;-77
2021/01/02 13:09:49;;;;;;;;;;;1.50;99.90;;;;;;5073638;28;19966;-77
2021/01/02 13:12:16;;;;;;;;;;;1.50;99.90;;;;;;5074924;28;19908;-75
2021/01/02 13:14:42;;;;;;;;;;;1.40;99.90;;;;;;5073059;28;20487;-77
2021/01/02 13:17:09;;;;;;;;;;;1.40;99.90;;;;;;5069221;28;20003;-77
2021/01/02 13:19:35;;;;;;;;;;;1.40;99.90;;;;;;5072967;28;19962;-76
2021/01/02 13:22:02;;;;;;;;;;;1.30;99.90;;;;;;5066189;28;19924;-75
2021/01/02 13:24:28;;;;;;;;;;;1.40;99.90;;;;;;5070328;28;19909;-77
2021/01/02 13:26:55;;;;;;;;;;;1.40;99.90;;;;;;5059707;28;19952;-77
2021/01/02 13:29:22;;;;;;;;;;;1.40;99.90;;;;;;5072754;28;19912;-76
2021/01/02 13:31:51;;;;;;;;;;;1.40;99.90;;;;;;5072510;28;20003;-76
2021/01/02 13:34:17;;;;;;;;;;;1.40;99.90;;;;;;5073925;28;20288;-75
2021/01/02 13:36:44;;;;;;;;;;;1.40;99.90;;;;;;5072486;28;20012;-77
2021/01/02 13:39:10;;;;;;;;;;;1.40;99.90;;;;;;5074101;28;19908;-76
2021/01/02 13:41:37;;;;;;;;;;;1.40;99.90;;;;;;5065501;28;19909;-76
2021/01/02 13:44:03;;;;;;;;;;;1.40;99.90;;;;;;5082235;28;20284;-76
2021/01/02 13:46:29;;;;;;;;;;;1.40;99.90;;;;;;5072827;28;20003;-76
2021/01/02 13:48:54;;;;;;;;;;;1.40;99.90;;;;;;5071628;28;20432;-77
2021/01/02 13:51:20;;;;;;;;;;;1.40;99.90;;;;;;5073548;28;19908;-76
2021/01/02 13:53:45;;;;;;;;;;;1.40;99.90;;;;;;5073470;28;19909;-76
2021/01/02 13:56:11;;;;;;;;;;;1.40;99.90;;;;;;5073179;28;19923;-76
2021/01/02 13:58:38;;;;;;;;;;;1.30;99.90;;;;;;5072805;28;20132;-76
2021/01/02 14:01:04;;;;;;;;;;;1.30;99.90;;;;;;5074078;28;19931;-76
2021/01/02 14:03:30;;;;;;;;;;;1.30;99.90;;;;;;5072808;28;20357;-75
2021/01/02 14:05:55;;;;;;;;;;;1.30;99.90;;;;;;5072554;28;20037;-75
2021/01/02 14:08:21;;;;;;;;;;;1.30;99.90;;;;;;5073988;28;20403;-77
2021/01/02 14:10:46;;;;;;;;;;;1.30;99.90;;;;;;5072372;28;19909;-76
2021/01/02 14:13:12;;;;;;;;;;;1.30;99.90;;;;;;5071275;28;19915;-76
2021/01/02 14:15:37;;;;;;;;;;;1.20;99.90;;;;;;5076191;28;19970;-74
2021/01/02 14:18:03;;;;;;;;;;;1.20;99.90;;;;;;5072438;28;19966;-76
2021/01/02 14:20:29;;;;;;;;;;;1.20;99.90;;;;;;5073623;28;20090;-76
2021/01/02 14:22:54;;;;;;;;;;;1.20;99.90;;;;;;5073757;28;20351;-75
2021/01/02 14:25:19;;;;;;;;;;;1.10;99.90;;;;;;5073651;28;19962;-76
2021/01/02 14:27:45;;;;;;;;;;;1.10;99.90;;;;;;5072044;28;19908;-76
2021/01/02 14:30:11;;;;;;;;;;;1.10;99.90;;;;;;5073444;28;20015;-76
2021/01/02 14:32:36;;;;;;;;;;;1.10;99.90;;;;;;5072297;28;19948;-77